Time;durP1;ratioP1;P1;durP2;ratioP2;P2;SDS_P1;SDS_P2;PMS_P1;PMS_P2;Temp;Humidity;BMP_temperature;BMP_pressure;BME280_temperature;BME280_humidity;BME280_pressure;Samples;Min_cycle;Max_cycle;Signal;HPM_P1;HPM_P2
2022/06/03 00:01:08;;;;;;;2.07;1.97;;;;;;;;;;4977681;28;20600;-36
2022/06/03 00:03:45;;;;;;;4.27;2.47;;;;;;;;;;4983304;28;20204;-41
2022/06/03 00:06:19;;;;;;;2.63;2.43;;;;;;;;;;4987505;28;20219;-37
2022/06/03 00:08:55;;;;;;;3.20;2.70;;;;;;;;;;4990380;28;20217;-39
2022/06/03 00:11:41;;;;;;;5.00;2.70;;;;;;;;;;4979556;28;20244;-36
2022/06/03 00:14:25;;;;;;;5.90;2.57;;;;;;;;;;4988392;28;20209;-42
2022/06/03 00:16:59;;;;;;;5.30;2.67;;;;;;;;;;4983798;28;20238;-36
2022/06/03 00:19:32;;;;;;;2.60;2.30;;;;;;;;;;4986820;28;20208;-40
2022/06/03 00:22:20;;;;;;;2.13;2.03;;;;;;;;;;4989014;28;20223;-37
2022/06/03 00:24:53;;;;;;;2.23;2.10;;;;;;;;;;4988811;28;20215;-42
2022/06/03 00:27:30;;;;;;;3.43;2.37;;;;;;;;;;4991717;28;20236;-41
2022/06/03 00:30:03;;;;;;;2.47;2.27;;;;;;;;;;4983825;28;20233;-41
2022/06/03 00:32:37;;;;;;;2.50;2.30;;;;;;;;;;4982729;28;20238;-42
2022/06/03 00:35:16;;;;;;;4.20;2.13;;;;;;;;;;4988030;28;20206;-40
2022/06/03 00:37:48;;;;;;;2.33;2.07;;;;;;;;;;4987295;28;20227;-34
2022/06/03 00:40:26;;;;;;;2.70;2.40;;;;;;;;;;4986440;28;20206;-39
2022/06/03 00:43:01;;;;;;;2.50;2.30;;;;;;;;;;4984691;28;20211;-41
2022/06/03 00:45:55;;;;;;;2.90;2.60;;;;;;;;;;4986201;28;20288;-42
2022/06/03 00:48:43;;;;;;;2.60;2.40;;;;;;;;;;4983972;28;20212;-36
2022/06/03 00:51:38;;;;;;;2.77;2.50;;;;;;;;;;4987064;28;20315;-42
2022/06/03 00:54:36;;;;;;;2.47;2.30;;;;;;;;;;4982314;28;20259;-36
2022/06/03 00:57:33;;;;;;;2.20;2.10;;;;;;;;;;4980155;28;20654;-38
2022/06/03 01:00:24;;;;;;;4.07;2.30;;;;;;;;;;4983852;28;20215;-36
2022/06/03 01:03:00;;;;;;;3.27;2.43;;;;;;;;;;4986696;28;20254;-33
2022/06/03 01:05:38;;;;;;;2.60;2.40;;;;;;;;;;4984820;28;20204;-35
2022/06/03 01:08:26;;;;;;;2.50;2.30;;;;;;;;;;4989227;28;20209;-39
2022/06/03 01:11:06;;;;;;;2.80;2.50;;;;;;;;;;4980942;28;20231;-40
2022/06/03 01:13:57;;;;;;;4.60;2.43;;;;;;;;;;4980593;28;20293;-38
2022/06/03 01:16:50;;;;;;;2.17;2.00;;;;;;;;;;4982685;28;20239;-38
2022/06/03 01:19:40;;;;;;;2.50;2.27;;;;;;;;;;4995722;28;20219;-41
2022/06/03 01:22:30;;;;;;;2.30;2.10;;;;;;;;;;4992920;28;20238;-34
2022/06/03 01:25:33;;;;;;;2.33;2.13;;;;;;;;;;4993046;28;20231;-38
2022/06/03 01:34:12;;;;;;;3.47;2.47;;;;;;;;;;4973996;28;20216;-40
2022/06/03 01:36:50;;;;;;;3.13;2.30;;;;;;;;;;4987944;28;20220;-39
2022/06/03 01:39:37;;;;;;;2.50;2.30;;;;;;;;;;4977776;28;20210;-37
2022/06/03 01:42:27;;;;;;;3.17;2.10;;;;;;;;;;4985111;28;20208;-37
2022/06/03 01:45:13;;;;;;;2.90;2.60;;;;;;;;;;4989877;28;20208;-36
2022/06/03 01:48:23;;;;;;;3.90;2.20;;;;;;;;;;4980739;28;20239;-40
2022/06/03 01:51:13;;;;;;;3.60;2.30;;;;;;;;;;4971238;28;20284;-39
2022/06/03 01:54:22;;;;;;;1.97;1.77;;;;;;;;;;4954518;28;20214;-38
2022/06/03 01:57:10;;;;;;;2.60;2.40;;;;;;;;;;4946428;28;20236;-38
2022/06/03 02:03:22;;;;;;;2.43;2.33;;;;;;;;;;4967231;28;20328;-38
2022/06/03 02:06:17;;;;;;;2.30;1.90;;;;;;;;;;4988973;28;20307;-40
2022/06/03 02:09:09;;;;;;;2.60;2.40;;;;;;;;;;4990306;28;20232;-38
2022/06/03 02:14:57;;;;;;;2.80;2.60;;;;;;;;;;4970141;28;20212;-41
2022/06/03 02:18:05;;;;;;;2.60;2.40;;;;;;;;;;4987186;28;20231;-38
2022/06/03 02:21:05;;;;;;;2.93;2.50;;;;;;;;;;4974183;28;20288;-40
2022/06/03 02:23:59;;;;;;;3.27;2.00;;;;;;;;;;4971684;28;20299;-37
2022/06/03 02:26:51;;;;;;;2.33;2.10;;;;;;;;;;4980835;28;20232;-42
2022/06/03 02:32:45;;;;;;;2.27;2.10;;;;;;;;;;4982592;28;20249;-35
2022/06/03 02:35:35;;;;;;;2.43;2.23;;;;;;;;;;4994434;28;20287;-38
2022/06/03 02:38:26;;;;;;;2.50;2.30;;;;;;;;;;4993233;28;20212;-43
2022/06/03 02:41:18;;;;;;;2.50;2.30;;;;;;;;;;4990878;28;20231;-43
2022/06/03 02:44:10;;;;;;;2.93;2.63;;;;;;;;;;4983332;28;20212;-36
2022/06/03 02:47:00;;;;;;;2.30;2.20;;;;;;;;;;4985724;28;20263;-39
2022/06/03 02:49:49;;;;;;;2.70;2.50;;;;;;;;;;4974785;28;20232;-36
2022/06/03 02:52:49;;;;;;;3.10;2.50;;;;;;;;;;4979193;28;20282;-42
2022/06/03 02:55:34;;;;;;;2.30;2.20;;;;;;;;;;4964750;28;20219;-39
2022/06/03 02:58:20;;;;;;;2.77;2.53;;;;;;;;;;4973774;28;20682;-33
2022/06/03 03:04:25;;;;;;;2.43;2.23;;;;;;;;;;4969389;28;20207;-40
2022/06/03 03:07:14;;;;;;;2.60;2.30;;;;;;;;;;4972923;28;20256;-38
2022/06/03 03:10:15;;;;;;;;;;;;;;;;;;;;;
2022/06/03 03:15:55;;;;;;;;;;;;;;;;;;;;;
2022/06/03 03:18:51;;;;;;;2.93;2.60;;;;;;;;;;4984313;28;20215;-39
2022/06/03 03:21:52;;;;;;;2.40;2.20;;;;;;;;;;4986737;28;20214;-37
2022/06/03 03:28:30;;;;;;;2.53;2.30;;;;;;;;;;4982055;28;20291;-43
2022/06/03 03:31:15;;;;;;;2.43;2.20;;;;;;;;;;4980338;28;20208;-36
2022/06/03 03:34:20;;;;;;;2.93;2.73;;;;;;;;;;4973616;28;20716;-40
2022/06/03 03:40:09;;;;;;;3.10;2.90;;;;;;;;;;4976450;28;20730;-38
2022/06/03 03:42:58;;;;;;;2.20;2.10;;;;;;;;;;4982023;28;20204;-42
2022/06/03 03:46:09;;;;;;;;;;;;;;;;;;;;;
2022/06/03 03:49:04;;;;;;;3.50;2.27;;;;;;;;;;4943437;28;20216;-32
2022/06/03 03:52:01;;;;;;;2.90;2.50;;;;;;;;;;4977277;28;20204;-35
2022/06/03 03:55:00;;;;;;;2.40;2.23;;;;;;;;;;4975429;28;20389;-34
2022/06/03 03:57:49;;;;;;;3.07;2.37;;;;;;;;;;4950904;28;20232;-38
2022/06/03 04:00:35;;;;;;;2.40;2.20;;;;;;;;;;4973268;28;20381;-40
2022/06/03 04:03:25;;;;;;;2.73;2.47;;;;;;;;;;4977909;28;20201;-36
2022/06/03 04:06:15;;;;;;;2.50;2.40;;;;;;;;;;4991533;28;20227;-39
2022/06/03 04:09:11;;;;;;;2.93;2.60;;;;;;;;;;4984616;28;20207;-38
2022/06/03 04:15:17;;;;;;;2.17;1.97;;;;;;;;;;4973705;28;20219;-43
2022/06/03 04:18:04;;;;;;;2.90;2.10;;;;;;;;;;4980387;28;20494;-42
2022/06/03 04:21:04;;;;;;;2.57;2.37;;;;;;;;;;4976935;28;20205;-41
2022/06/03 04:24:14;;;;;;;2.80;2.50;;;;;;;;;;4958677;28;20208;-33
2022/06/03 04:27:03;;;;;;;4.20;2.40;;;;;;;;;;4979967;28;20253;-36
2022/06/03 04:29:57;;;;;;;2.60;2.40;;;;;;;;;;4973375;28;20295;-40
2022/06/03 04:39:05;;;;;;;2.43;2.23;;;;;;;;;;4992127;28;20235;-38
2022/06/03 04:42:09;;;;;;;;;;;;;;;;;;;;;
2022/06/03 04:45:21;;;;;;;2.73;2.53;;;;;;;;;;4965116;28;20221;-36
2022/06/03 04:48:14;;;;;;;3.63;2.50;;;;;;;;;;4981530;28;20705;-38
2022/06/03 04:51:10;;;;;;;3.17;2.80;;;;;;;;;;4975675;28;20291;-38
2022/06/03 04:54:13;;;;;;;2.73;2.53;;;;;;;;;;4995203;28;20228;-33
2022/06/03 04:56:55;;;;;;;2.93;2.63;;;;;;;;;;4987200;28;20223;-37
2022/06/03 05:00:02;;;;;;;3.47;2.50;;;;;;;;;;4979331;28;20290;-38
2022/06/03 05:03:06;;;;;;;3.03;2.83;;;;;;;;;;4984719;28;20208;-40
2022/06/03 05:05:56;;;;;;;4.67;3.03;;;;;;;;;;4975385;28;20207;-38
2022/06/03 05:08:57;;;;;;;5.10;3.63;;;;;;;;;;4999169;28;20631;-39
2022/06/03 05:11:43;;;;;;;2.90;2.70;;;;;;;;;;4983016;28;20208;-36
2022/06/03 05:14:43;;;;;;;4.67;2.77;;;;;;;;;;4978588;28;20212;-40
2022/06/03 05:17:36;;;;;;;3.87;3.53;;;;;;;;;;4981893;28;20235;-36
2022/06/03 05:23:37;;;;;;;3.57;3.20;;;;;;;;;;4971935;28;20204;-31
2022/06/03 05:32:41;;;;;;;3.87;3.33;;;;;;;;;;4973052;28;20228;-37
2022/06/03 05:35:45;;;;;;;4.07;3.40;;;;;;;;;;4973815;28;20208;-38
2022/06/03 05:38:44;;;;;;;3.90;3.50;;;;;;;;;;4939825;28;20245;-37
2022/06/03 05:44:44;;;;;;;3.17;2.87;;;;;;;;;;4989609;28;20554;-35
2022/06/03 05:49:43;;;;;;;5.53;3.23;;;;;;;;;;4981492;28;20281;-31
2022/06/03 05:52:25;;;;;;;4.13;3.27;;;;;;;;;;4994823;28;20203;-28
2022/06/03 05:55:00;;;;;;;4.87;3.17;;;;;;;;;;4996505;28;20214;-30
2022/06/03 05:57:38;;;;;;;3.80;3.40;;;;;;;;;;4993792;28;20277;-30
2022/06/03 06:00:15;;;;;;;3.87;3.20;;;;;;;;;;4981689;28;20285;-28
2022/06/03 06:02:46;;;;;;;4.73;3.27;;;;;;;;;;4986154;28;20203;-33
2022/06/03 06:05:18;;;;;;;3.77;3.00;;;;;;;;;;4996574;28;20241;-30
2022/06/03 06:07:51;;;;;;;4.47;3.30;;;;;;;;;;4995461;28;20322;-31
2022/06/03 06:10:23;;;;;;;5.30;3.50;;;;;;;;;;4989921;28;20211;-31
2022/06/03 06:12:59;;;;;;;4.33;3.20;;;;;;;;;;4985955;28;20227;-30
2022/06/03 06:15:37;;;;;;;3.70;3.40;;;;;;;;;;4976007;28;20211;-31
2022/06/03 06:18:09;;;;;;;3.30;3.07;;;;;;;;;;4981413;28;20200;-32
2022/06/03 06:20:44;;;;;;;3.40;3.10;;;;;;;;;;4984890;28;20201;-31
2022/06/03 06:23:16;;;;;;;4.17;3.43;;;;;;;;;;4977408;28;20195;-30
2022/06/03 06:25:51;;;;;;;3.67;3.33;;;;;;;;;;4977881;28;20228;-26
2022/06/03 06:28:29;;;;;;;5.00;3.70;;;;;;;;;;4984535;28;20242;-32
2022/06/03 06:31:17;;;;;;;3.43;3.13;;;;;;;;;;4990741;28;20208;-31
2022/06/03 06:34:03;;;;;;;5.57;3.50;;;;;;;;;;4981600;28;20233;-27
2022/06/03 06:36:49;;;;;;;3.33;3.03;;;;;;;;;;4988126;28;20283;-31
2022/06/03 06:39:22;;;;;;;3.75;3.38;;;;;;;;;;4977737;28;20224;-29
2022/06/03 06:41:53;;;;;;;3.78;3.30;;;;;;;;;;4988271;28;20205;-32
2022/06/03 06:44:34;;;;;;;3.47;3.00;;;;;;;;;;4995257;28;20192;-28
2022/06/03 06:47:09;;;;;;;8.75;4.20;;;;;;;;;;4991578;28;20228;-29
2022/06/03 06:49:41;;;;;;;6.32;3.40;;;;;;;;;;4986945;28;20231;-29
2022/06/03 06:52:26;;;;;;;3.97;3.20;;;;;;;;;;4977232;28;20212;-28
2022/06/03 06:54:56;;;;;;;4.07;3.78;;;;;;;;;;4974314;28;20205;-28
2022/06/03 06:57:25;;;;;;;4.38;3.15;;;;;;;;;;4982783;28;20236;-27
2022/06/03 06:59:57;;;;;;;3.70;3.38;;;;;;;;;;4976874;28;20206;-29
2022/06/03 07:02:28;;;;;;;3.40;3.10;;;;;;;;;;4981642;28;20200;-28
2022/06/03 07:04:58;;;;;;;3.85;3.40;;;;;;;;;;4975956;28;20210;-30
2022/06/03 07:07:28;;;;;;;4.70;2.90;;;;;;;;;;4976286;28;20232;-31
2022/06/03 07:09:58;;;;;;;3.03;2.80;;;;;;;;;;4982215;28;20202;-30
2022/06/03 07:12:29;;;;;;;3.13;2.92;;;;;;;;;;4995535;28;20205;-31
2022/06/03 07:15:00;;;;;;;3.42;3.13;;;;;;;;;;4976129;28;20207;-29
2022/06/03 07:20:32;;;;;;;3.60;2.85;;;;;;;;;;4976699;28;20201;-31
2022/06/03 07:23:06;;;;;;;2.85;2.65;;;;;;;;;;4975894;28;20196;-31
2022/06/03 07:25:38;;;;;;;2.90;2.60;;;;;;;;;;4987141;28;20292;-29
2022/06/03 07:28:10;;;;;;;14.32;3.15;;;;;;;;;;4990649;28;20194;-29
2022/06/03 07:30:42;;;;;;;5.00;2.80;;;;;;;;;;4975876;28;20195;-30
2022/06/03 07:33:12;;;;;;;3.55;2.80;;;;;;;;;;4992632;28;20230;-29
2022/06/03 07:35:43;;;;;;;3.58;3.00;;;;;;;;;;4993726;28;20234;-29
2022/06/03 07:38:15;;;;;;;3.95;2.90;;;;;;;;;;4975920;28;20214;-29
2022/06/03 07:40:43;;;;;;;2.65;2.47;;;;;;;;;;4977078;28;20265;-30
2022/06/03 07:43:14;;;;;;;2.92;2.72;;;;;;;;;;4975464;28;20208;-30
2022/06/03 07:45:44;;;;;;;2.60;2.40;;;;;;;;;;4982881;28;20226;-28
2022/06/03 07:48:13;;;;;;;2.33;2.13;;;;;;;;;;4989934;28;20219;-30
2022/06/03 07:50:46;;;;;;;2.90;2.67;;;;;;;;;;4985203;28;20206;-28
2022/06/03 07:53:15;;;;;;;6.88;2.80;;;;;;;;;;4974736;28;20219;-29
2022/06/03 07:55:43;;;;;;;2.90;2.70;;;;;;;;;;4981495;28;20243;-28
2022/06/03 07:58:18;;;;;;;6.18;2.65;;;;;;;;;;4989537;28;20208;-29
2022/06/03 08:00:46;;;;;;;2.90;2.70;;;;;;;;;;4974080;28;20209;-28
2022/06/03 08:03:15;;;;;;;2.72;2.35;;;;;;;;;;4980640;28;20198;-26
2022/06/03 08:05:44;;;;;;;3.15;2.70;;;;;;;;;;4983965;28;20233;-28
2022/06/03 08:11:00;;;;;;;2.70;2.50;;;;;;;;;;4983335;28;20205;-28
2022/06/03 08:13:27;;;;;;;4.20;2.60;;;;;;;;;;4981843;28;20280;-28
2022/06/03 08:15:58;;;;;;;4.38;2.55;;;;;;;;;;4989496;28;20227;-30
2022/06/03 08:18:27;;;;;;;2.75;2.55;;;;;;;;;;4974985;28;20217;-29
2022/06/03 08:20:56;;;;;;;3.05;2.50;;;;;;;;;;4976910;28;20206;-27
2022/06/03 08:23:24;;;;;;;2.97;2.78;;;;;;;;;;4991387;28;20292;-30
2022/06/03 08:25:52;;;;;;;2.50;2.30;;;;;;;;;;4986783;28;20235;-30
2022/06/03 08:28:21;;;;;;;2.63;2.38;;;;;;;;;;4979658;28;20211;-28
2022/06/03 08:30:51;;;;;;;3.22;2.85;;;;;;;;;;4974635;28;20467;-28
2022/06/03 08:33:23;;;;;;;2.95;2.55;;;;;;;;;;4982437;28;20231;-30
2022/06/03 08:35:50;;;;;;;3.50;2.70;;;;;;;;;;4980607;28;20227;-31
2022/06/03 08:38:20;;;;;;;4.93;2.28;;;;;;;;;;4973865;28;20214;-29
2022/06/03 08:40:58;;;;;;;2.97;2.47;;;;;;;;;;4977335;28;20217;-29
2022/06/03 08:43:30;;;;;;;2.75;2.55;;;;;;;;;;4982300;28;20198;-31
2022/06/03 08:46:03;;;;;;;4.00;2.45;;;;;;;;;;4975490;28;20230;-26
2022/06/03 08:48:34;;;;;;;2.63;2.42;;;;;;;;;;4989404;28;20269;-30
2022/06/03 08:51:01;;;;;;;2.72;2.47;;;;;;;;;;4972675;28;20204;-29
2022/06/03 08:53:32;;;;;;;2.38;2.17;;;;;;;;;;4971570;28;20220;-27
2022/06/03 08:56:01;;;;;;;2.55;2.35;;;;;;;;;;4980186;28;20236;-29
2022/06/03 08:58:32;;;;;;;5.07;2.20;;;;;;;;;;4987337;28;20208;-31
2022/06/03 09:01:03;;;;;;;3.00;2.38;;;;;;;;;;4987440;28;20229;-27
2022/06/03 09:03:34;;;;;;;5.75;2.38;;;;;;;;;;4976942;28;20204;-29
2022/06/03 09:06:06;;;;;;;3.70;2.50;;;;;;;;;;4985814;28;20224;-28
2022/06/03 09:08:36;;;;;;;2.90;2.70;;;;;;;;;;4976758;28;20248;-29
2022/06/03 09:11:05;;;;;;;3.78;2.70;;;;;;;;;;4977690;28;20212;-29
2022/06/03 09:13:35;;;;;;;6.47;2.90;;;;;;;;;;4993393;28;20265;-30
2022/06/03 09:16:03;;;;;;;3.60;2.35;;;;;;;;;;4990519;28;20226;-29
2022/06/03 09:18:32;;;;;;;4.93;2.33;;;;;;;;;;4981713;28;20302;-30
2022/06/03 09:21:03;;;;;;;2.80;2.13;;;;;;;;;;4985404;28;20206;-28
2022/06/03 09:23:34;;;;;;;2.95;2.38;;;;;;;;;;4992921;28;20249;-29
2022/06/03 09:26:01;;;;;;;5.00;2.65;;;;;;;;;;4989652;28;20236;-29
2022/06/03 09:28:31;;;;;;;5.13;2.67;;;;;;;;;;4980376;28;20214;-30
2022/06/03 09:30:59;;;;;;;2.97;2.33;;;;;;;;;;4981020;28;20215;-27
2022/06/03 09:33:27;;;;;;;2.47;2.28;;;;;;;;;;4990880;28;20317;-31
2022/06/03 09:35:56;;;;;;;4.35;2.85;;;;;;;;;;4984306;28;20313;-27
2022/06/03 09:38:29;;;;;;;2.70;2.50;;;;;;;;;;4976348;28;20223;-28
2022/06/03 09:40:59;;;;;;;2.38;2.15;;;;;;;;;;4992716;28;20289;-28
2022/06/03 09:43:27;;;;;;;3.95;2.47;;;;;;;;;;4978815;28;20210;-30
2022/06/03 09:45:56;;;;;;;2.85;2.65;;;;;;;;;;4975721;28;20225;-28
2022/06/03 09:48:26;;;;;;;3.47;2.30;;;;;;;;;;4985769;28;20219;-30
2022/06/03 09:50:56;;;;;;;2.47;2.17;;;;;;;;;;4990373;28;20214;-26
2022/06/03 09:53:31;;;;;;;2.72;2.50;;;;;;;;;;4973812;28;20218;-27
2022/06/03 09:56:01;;;;;;;4.97;2.22;;;;;;;;;;4976585;28;20279;-28
2022/06/03 09:58:30;;;;;;;4.13;2.63;;;;;;;;;;4975773;28;20303;-28
2022/06/03 10:00:58;;;;;;;2.50;2.38;;;;;;;;;;4972003;28;20214;-29
2022/06/03 10:03:26;;;;;;;2.92;2.63;;;;;;;;;;4976969;28;20211;-27
2022/06/03 10:05:55;;;;;;;2.90;2.38;;;;;;;;;;4983768;28;20236;-28
2022/06/03 10:08:25;;;;;;;2.83;2.30;;;;;;;;;;4988429;28;20218;-29
2022/06/03 10:13:39;;;;;;;3.05;2.70;;;;;;;;;;4989890;28;20254;-29
2022/06/03 10:16:07;;;;;;;2.47;2.28;;;;;;;;;;4987008;28;20250;-27
2022/06/03 10:18:36;;;;;;;2.92;2.65;;;;;;;;;;4979724;28;20254;-26
2022/06/03 10:21:22;;;;;;;2.58;2.38;;;;;;;;;;4973432;28;20208;-28
2022/06/03 10:23:55;;;;;;;3.60;2.30;;;;;;;;;;4973822;28;20222;-29
2022/06/03 10:26:25;;;;;;;2.78;2.30;;;;;;;;;;4982598;28;20225;-27
2022/06/03 10:28:54;;;;;;;2.60;2.35;;;;;;;;;;4985072;28;20214;-29
2022/06/03 10:31:23;;;;;;;3.95;2.25;;;;;;;;;;4986470;28;20271;-26
2022/06/03 10:33:54;;;;;;;4.28;2.00;;;;;;;;;;4974057;28;20233;-29
2022/06/03 10:36:24;;;;;;;3.25;2.08;;;;;;;;;;5006171;28;20233;-28
2022/06/03 10:38:54;;;;;;;2.75;2.40;;;;;;;;;;5007329;28;20204;-28
2022/06/03 10:41:31;;;;;;;2.60;2.40;;;;;;;;;;4997163;28;20424;-26
2022/06/03 10:43:59;;;;;;;2.65;2.45;;;;;;;;;;4981131;28;20214;-29
2022/06/03 10:46:26;;;;;;;3.35;2.22;;;;;;;;;;4987545;28;20234;-27
2022/06/03 10:48:54;;;;;;;4.07;1.88;;;;;;;;;;4989640;28;20246;-30
2022/06/03 11:01:06;;;;;;;4.88;2.40;;;;;;;;;;4989375;28;20214;-29
2022/06/03 11:02:31;;;;;;;2.60;2.00;;;;;;;;;;4977791;28;20221;-28
2022/06/03 11:05:11;;;;;;;5.20;2.55;;;;;;;;;;4974030;28;20198;-26
2022/06/03 11:07:39;;;;;;;3.72;2.22;;;;;;;;;;4997350;28;20312;-29
2022/06/03 11:10:09;;;;;;;2.03;1.92;;;;;;;;;;4997435;28;20267;-29
2022/06/03 11:12:39;;;;;;;3.45;2.03;;;;;;;;;;4993638;28;20211;-28
2022/06/03 11:15:25;;;;;;;2.25;2.00;;;;;;;;;;4989609;28;20237;-30
2022/06/03 11:17:52;;;;;;;2.40;2.08;;;;;;;;;;4978680;28;20307;-29
2022/06/03 11:20:32;;;;;;;2.05;1.95;;;;;;;;;;4985235;28;20215;-30
2022/06/03 11:22:59;;;;;;;3.22;2.10;;;;;;;;;;4994595;28;20218;-29
2022/06/03 11:25:28;;;;;;;2.10;1.92;;;;;;;;;;4987219;28;20245;-28
2022/06/03 11:27:58;;;;;;;2.15;2.05;;;;;;;;;;4981453;28;20198;-28
2022/06/03 11:30:37;;;;;;;2.80;2.05;;;;;;;;;;4982820;28;20252;-31
2022/06/03 11:33:06;;;;;;;2.50;2.00;;;;;;;;;;4987110;28;20239;-31
2022/06/03 11:35:38;;;;;;;3.00;1.55;;;;;;;;;;4986008;28;20225;-29
2022/06/03 11:38:06;;;;;;;2.20;2.00;;;;;;;;;;4975672;28;20282;-28
2022/06/03 11:40:35;;;;;;;2.63;2.00;;;;;;;;;;4976507;28;20271;-30
2022/06/03 11:43:05;;;;;;;1.65;1.63;;;;;;;;;;4988213;28;20217;-29
2022/06/03 11:50:38;;;;;;;5.72;2.00;;;;;;;;;;4979798;28;20234;-28
2022/06/03 11:53:05;;;;;;;1.70;1.60;;;;;;;;;;4981268;28;20213;-26
2022/06/03 11:55:35;;;;;;;2.05;1.95;;;;;;;;;;4979542;28;20313;-27
2022/06/03 11:58:04;;;;;;;2.10;1.90;;;;;;;;;;4986690;28;20202;-27
2022/06/03 12:00:34;;;;;;;2.30;1.92;;;;;;;;;;4976480;28;20296;-28
2022/06/03 12:03:32;;;;;;;4.10;1.98;;;;;;;;;;4988103;28;20272;-26
2022/06/03 12:06:03;;;;;;;1.77;1.67;;;;;;;;;;4940694;28;20217;-28
2022/06/03 12:08:35;;;;;;;2.85;1.90;;;;;;;;;;4965793;28;20307;-27
2022/06/03 12:11:05;;;;;;;2.17;1.98;;;;;;;;;;4976530;28;20238;-25
2022/06/03 12:13:32;;;;;;;4.28;1.92;;;;;;;;;;4989973;28;20195;-26
2022/06/03 12:16:02;;;;;;;2.20;2.10;;;;;;;;;;4986480;28;20236;-31
2022/06/03 12:18:43;;;;;;;2.15;1.98;;;;;;;;;;4973444;28;20209;-29
2022/06/03 12:21:14;;;;;;;2.17;2.00;;;;;;;;;;4978591;28;20206;-26
2022/06/03 12:23:52;;;;;;;2.53;2.00;;;;;;;;;;4993199;28;20196;-24
2022/06/03 12:26:22;;;;;;;2.28;1.90;;;;;;;;;;4993282;28;20231;-28
2022/06/03 12:28:51;;;;;;;2.30;2.20;;;;;;;;;;5009522;28;20289;-26
2022/06/03 12:31:30;;;;;;;3.75;2.10;;;;;;;;;;4985789;28;20216;-29
2022/06/03 12:34:08;;;;;;;2.45;2.25;;;;;;;;;;4973229;28;20227;-27
2022/06/03 12:36:39;;;;;;;3.20;2.00;;;;;;;;;;4991263;28;20227;-27
2022/06/03 12:39:14;;;;;;;2.53;2.33;;;;;;;;;;4991771;28;20229;-31
2022/06/03 12:42:05;;;;;;;2.45;2.08;;;;;;;;;;4974787;28;20301;-28
2022/06/03 12:44:38;;;;;;;2.13;1.92;;;;;;;;;;4972345;28;20211;-29
2022/06/03 12:47:29;;;;;;;2.70;2.50;;;;;;;;;;4988052;28;20259;-28
2022/06/03 12:49:57;;;;;;;2.35;2.15;;;;;;;;;;4972948;28;20216;-28
2022/06/03 12:52:39;;;;;;;4.07;2.45;;;;;;;;;;4987990;28;20211;-27
2022/06/03 12:55:07;;;;;;;2.28;2.13;;;;;;;;;;4975487;28;20271;-29
2022/06/03 12:57:40;;;;;;;2.42;1.98;;;;;;;;;;4981977;28;20227;-26
2022/06/03 13:00:08;;;;;;;4.50;2.00;;;;;;;;;;4993404;28;20195;-30
2022/06/03 13:02:37;;;;;;;2.78;2.05;;;;;;;;;;4975725;28;20306;-28
2022/06/03 13:05:08;;;;;;;1.90;1.80;;;;;;;;;;4976618;28;20213;-27
2022/06/03 13:07:39;;;;;;;3.92;2.20;;;;;;;;;;4977355;28;20310;-30
2022/06/03 13:10:21;;;;;;;2.47;2.30;;;;;;;;;;4985561;28;20211;-26
2022/06/03 13:12:52;;;;;;;5.50;2.30;;;;;;;;;;4990095;28;20206;-27
2022/06/03 13:15:38;;;;;;;2.40;2.15;;;;;;;;;;4993183;28;20278;-27
2022/06/03 13:18:10;;;;;;;2.42;2.10;;;;;;;;;;4987315;28;20356;-30
2022/06/03 13:20:39;;;;;;;2.13;1.98;;;;;;;;;;4977060;28;20208;-25
2022/06/03 13:23:21;;;;;;;3.50;2.33;;;;;;;;;;4993082;28;20200;-28
2022/06/03 13:25:50;;;;;;;2.22;2.10;;;;;;;;;;4982259;28;20231;-31
2022/06/03 13:28:37;;;;;;;3.15;2.22;;;;;;;;;;4973608;28;20219;-27
2022/06/03 13:31:10;;;;;;;2.95;2.67;;;;;;;;;;4975598;28;20204;-27
2022/06/03 13:33:52;;;;;;;2.15;2.05;;;;;;;;;;4976419;28;20203;-26
2022/06/03 13:36:33;;;;;;;3.35;2.22;;;;;;;;;;4978879;28;20323;-27
2022/06/03 13:39:00;;;;;;;2.47;2.17;;;;;;;;;;4973936;28;20258;-28
2022/06/03 13:44:40;;;;;;;2.63;2.42;;;;;;;;;;4984855;28;20202;-24
2022/06/03 13:47:09;;;;;;;2.60;2.40;;;;;;;;;;4980973;28;20251;-30
2022/06/03 13:49:39;;;;;;;2.70;2.50;;;;;;;;;;4973388;28;20218;-30
2022/06/03 13:52:09;;;;;;;3.15;2.22;;;;;;;;;;4986584;28;20193;-27
2022/06/03 13:54:40;;;;;;;2.92;2.58;;;;;;;;;;4987347;28;20234;-29
2022/06/03 13:57:16;;;;;;;4.00;2.40;;;;;;;;;;4976383;28;20222;-25
2022/06/03 13:59:46;;;;;;;3.63;2.72;;;;;;;;;;4982212;28;20285;-28
2022/06/03 14:02:15;;;;;;;2.85;2.65;;;;;;;;;;4979238;28;20217;-28
2022/06/03 14:04:56;;;;;;;3.20;2.58;;;;;;;;;;4991821;28;20251;-28
2022/06/03 14:07:26;;;;;;;3.75;2.95;;;;;;;;;;4977791;28;20227;-28
2022/06/03 14:09:54;;;;;;;3.33;2.65;;;;;;;;;;4972068;28;20296;-30
2022/06/03 14:12:28;;;;;;;5.18;2.60;;;;;;;;;;4980666;28;20215;-28
2022/06/03 14:14:58;;;;;;;2.78;2.58;;;;;;;;;;4977170;28;20248;-31
2022/06/03 14:17:31;;;;;;;3.83;2.50;;;;;;;;;;4980637;28;20229;-28
2022/06/03 14:20:00;;;;;;;2.90;2.67;;;;;;;;;;4993526;28;20204;-28
2022/06/03 14:22:33;;;;;;;2.88;2.60;;;;;;;;;;4975753;28;20269;-28
2022/06/03 14:25:15;;;;;;;2.83;2.63;;;;;;;;;;4974393;28;20205;-26
2022/06/03 14:27:46;;;;;;;2.78;2.58;;;;;;;;;;4984146;28;20259;-26
2022/06/03 14:30:16;;;;;;;4.93;2.92;;;;;;;;;;4984611;28;20261;-30
2022/06/03 14:32:49;;;;;;;4.03;2.55;;;;;;;;;;4974847;28;20215;-28
2022/06/03 14:35:19;;;;;;;3.67;3.42;;;;;;;;;;4981673;28;20238;-26
2022/06/03 14:37:49;;;;;;;4.90;3.40;;;;;;;;;;4996044;28;20207;-26
2022/06/03 14:40:19;;;;;;;3.33;3.00;;;;;;;;;;4984972;28;20272;-26
2022/06/03 14:42:50;;;;;;;3.15;2.95;;;;;;;;;;4987260;28;20221;-27
2022/06/03 14:45:22;;;;;;;2.85;2.65;;;;;;;;;;4995788;28;20256;-28
2022/06/03 14:47:52;;;;;;;3.40;2.97;;;;;;;;;;4980267;28;20218;-27
2022/06/03 14:50:21;;;;;;;4.68;3.20;;;;;;;;;;4981012;28;20300;-25
2022/06/03 14:52:50;;;;;;;4.25;2.97;;;;;;;;;;4976877;28;20246;-26
2022/06/03 14:55:22;;;;;;;3.38;2.90;;;;;;;;;;4975721;28;20233;-27
2022/06/03 14:57:54;;;;;;;4.30;3.38;;;;;;;;;;4979171;28;20214;-28
2022/06/03 15:00:29;;;;;;;3.40;3.08;;;;;;;;;;4979988;28;20208;-29
2022/06/03 15:03:00;;;;;;;3.47;3.17;;;;;;;;;;4976426;28;20215;-28
2022/06/03 15:05:29;;;;;;;3.47;3.17;;;;;;;;;;4975512;28;20198;-30
2022/06/03 15:07:59;;;;;;;3.40;3.10;;;;;;;;;;4975713;28;20218;-30
2022/06/03 15:10:28;;;;;;;5.35;4.85;;;;;;;;;;4974991;28;20270;-28
2022/06/03 15:12:58;;;;;;;5.88;3.42;;;;;;;;;;4977503;28;20204;-29
2022/06/03 15:15:27;;;;;;;3.28;3.08;;;;;;;;;;4982879;28;20231;-28
2022/06/03 15:17:54;;;;;;;3.60;3.30;;;;;;;;;;4975790;28;20212;-27
2022/06/03 15:20:22;;;;;;;3.22;2.92;;;;;;;;;;4983651;28;20227;-30
2022/06/03 15:22:52;;;;;;;3.42;3.13;;;;;;;;;;4975163;28;20245;-30
2022/06/03 15:25:21;;;;;;;3.08;2.83;;;;;;;;;;4979367;28;20202;-31
2022/06/03 15:27:52;;;;;;;4.55;4.15;;;;;;;;;;4974796;28;20240;-26
2022/06/03 15:30:22;;;;;;;5.07;3.17;;;;;;;;;;4989380;28;20197;-31
2022/06/03 15:32:50;;;;;;;4.03;2.95;;;;;;;;;;4980418;28;20230;-26
2022/06/03 15:35:21;;;;;;;3.47;3.10;;;;;;;;;;4988370;28;20264;-29
2022/06/03 15:37:50;;;;;;;3.03;2.80;;;;;;;;;;4976070;28;20227;-29
2022/06/03 15:40:24;;;;;;;3.47;3.17;;;;;;;;;;4983120;28;20222;-27
2022/06/03 15:42:52;;;;;;;7.13;3.20;;;;;;;;;;4986139;28;20217;-31
2022/06/03 15:45:37;;;;;;;3.30;3.10;;;;;;;;;;4995212;28;20205;-32
2022/06/03 15:48:05;;;;;;;4.15;2.95;;;;;;;;;;4981024;28;20661;-28
2022/06/03 15:50:33;;;;;;;4.53;2.95;;;;;;;;;;4993865;28;20222;-27
2022/06/03 15:53:00;;;;;;;3.03;2.70;;;;;;;;;;4975443;28;20599;-27
2022/06/03 15:55:30;;;;;;;3.00;2.80;;;;;;;;;;4975358;28;20230;-24
2022/06/03 15:58:05;;;;;;;3.92;3.10;;;;;;;;;;4986394;28;20265;-27
2022/06/03 16:00:37;;;;;;;3.00;2.80;;;;;;;;;;4992130;28;20202;-28
2022/06/03 16:03:07;;;;;;;2.78;2.47;;;;;;;;;;4974100;28;20829;-28
2022/06/03 16:05:44;;;;;;;4.40;2.67;;;;;;;;;;4990462;28;20264;-26
2022/06/03 16:08:16;;;;;;;3.17;2.97;;;;;;;;;;4993883;28;20211;-27
2022/06/03 16:10:54;;;;;;;2.63;2.42;;;;;;;;;;4987708;28;20237;-27
2022/06/03 16:13:29;;;;;;;3.63;3.00;;;;;;;;;;4974029;28;20204;-29
2022/06/03 16:16:03;;;;;;;3.70;2.67;;;;;;;;;;4976514;28;20238;-26
2022/06/03 16:18:55;;;;;;;6.65;2.63;;;;;;;;;;4985396;28;20215;-29
2022/06/03 16:21:31;;;;;;;5.10;2.45;;;;;;;;;;4988952;28;20214;-29
2022/06/03 16:24:03;;;;;;;2.42;2.30;;;;;;;;;;4991895;28;20214;-26
2022/06/03 16:26:34;;;;;;;2.95;2.45;;;;;;;;;;4977234;28;20253;-29
2022/06/03 16:29:10;;;;;;;2.40;2.20;;;;;;;;;;4981408;28;20200;-28
2022/06/03 16:31:43;;;;;;;2.90;2.17;;;;;;;;;;4971425;28;20214;-30
2022/06/03 16:34:16;;;;;;;1.98;1.88;;;;;;;;;;4986726;28;20202;-31
2022/06/03 16:36:46;;;;;;;3.13;2.40;;;;;;;;;;4975026;28;20236;-29
2022/06/03 16:39:18;;;;;;;2.83;2.42;;;;;;;;;;4975852;28;20261;-29
2022/06/03 16:41:47;;;;;;;4.07;2.00;;;;;;;;;;4982132;28;20207;-28
2022/06/03 16:44:17;;;;;;;4.18;2.42;;;;;;;;;;4972958;28;20214;-27
2022/06/03 16:46:52;;;;;;;3.33;2.40;;;;;;;;;;4979951;28;20232;-31
2022/06/03 16:49:30;;;;;;;2.97;2.00;;;;;;;;;;4978496;28;20272;-28
2022/06/03 16:52:04;;;;;;;5.05;2.30;;;;;;;;;;4985061;28;20207;-29
2022/06/03 16:54:32;;;;;;;3.30;1.98;;;;;;;;;;4988015;28;20265;-26
2022/06/03 16:57:01;;;;;;;2.40;2.15;;;;;;;;;;4979792;28;20230;-27
2022/06/03 16:59:28;;;;;;;2.30;2.10;;;;;;;;;;4980346;28;20250;-28
2022/06/03 17:02:00;;;;;;;2.63;1.77;;;;;;;;;;4977887;28;20214;-27
2022/06/03 17:04:31;;;;;;;3.05;2.17;;;;;;;;;;4976831;28;20268;-30